sensor_id;sensor_type;location;lat;lon;timestamp;temperature;humidity
22682;DHT22;11508;50.856;4.380;2024-02-04T03:54:29;10.60;99.90
22682;DHT22;11508;50.856;4.380;2024-02-04T03:56:55;10.50;99.90
22682;DHT22;11508;50.856;4.380;2024-02-04T03:59:21;10.50;99.90
22682;DHT22;11508;50.856;4.380;2024-02-04T04:02:12;10.60;99.90
22682;DHT22;11508;50.856;4.380;2024-02-04T04:08:23;10.50;99.90
22682;DHT22;11508;50.856;4.380;2024-02-04T04:14:14;10.50;99.90
22682;DHT22;11508;50.856;4.380;2024-02-04T04:20:26;10.50;99.90
22682;DHT22;11508;50.856;4.380;2024-02-04T04:26:27;10.50;99.90
22682;DHT22;11508;50.856;4.380;2024-02-04T05:36:41;10.40;99.90
22682;DHT22;11508;50.856;4.380;2024-02-04T07:01:46;10.40;99.90
22682;DHT22;11508;50.856;4.380;2024-02-04T07:04:14;10.40;99.90
22682;DHT22;11508;50.856;4.380;2024-02-04T07:06:39;10.50;99.90
22682;DHT22;11508;50.856;4.380;2024-02-04T07:09:21;10.40;99.90
22682;DHT22;11508;50.856;4.380;2024-02-04T07:15:09;10.40;99.90
22682;DHT22;11508;50.856;4.380;2024-02-04T07:31:46;10.50;99.90
22682;DHT22;11508;50.856;4.380;2024-02-04T07:37:55;10.50;99.90
22682;DHT22;11508;50.856;4.380;2024-02-04T09:22:52;10.90;99.90
22682;DHT22;11508;50.856;4.380;2024-02-04T09:25:17;10.90;99.90
22682;DHT22;11508;50.856;4.380;2024-02-04T09:38:20;10.90;99.90
22682;DHT22;11508;50.856;4.380;2024-02-04T09:50:41;10.90;99.90
22682;DHT22;11508;50.856;4.380;2024-02-04T09:53:08;10.90;99.90
22682;DHT22;11508;50.856;4.380;2024-02-04T09:55:34;11.00;99.90
22682;DHT22;11508;50.856;4.380;2024-02-04T10:11:47;11.00;99.90
22682;DHT22;11508;50.856;4.380;2024-02-04T10:30:52;11.30;99.90
22682;DHT22;11508;50.856;4.380;2024-02-04T10:33:17;11.30;99.90
22682;DHT22;11508;50.856;4.380;2024-02-04T10:35:43;11.30;99.90
22682;DHT22;11508;50.856;4.380;2024-02-04T10:38:09;11.30;99.90
22682;DHT22;11508;50.856;4.380;2024-02-04T10:40:35;11.20;99.90
22682;DHT22;11508;50.856;4.380;2024-02-04T10:43:04;11.20;99.90
22682;DHT22;11508;50.856;4.380;2024-02-04T10:45:33;11.20;99.90
22682;DHT22;11508;50.856;4.380;2024-02-04T10:48:01;11.20;99.90
22682;DHT22;11508;50.856;4.380;2024-02-04T10:50:28;11.20;99.90
22682;DHT22;11508;50.856;4.380;2024-02-04T10:52:58;11.40;99.90
22682;DHT22;11508;50.856;4.380;2024-02-04T10:55:33;11.40;99.90
22682;DHT22;11508;50.856;4.380;2024-02-04T10:58:01;11.40;99.90
22682;DHT22;11508;50.856;4.380;2024-02-04T11:00:28;11.60;99.90
22682;DHT22;11508;50.856;4.380;2024-02-04T11:02:54;11.40;99.90
22682;DHT22;11508;50.856;4.380;2024-02-04T11:05:21;11.40;99.90
22682;DHT22;11508;50.856;4.380;2024-02-04T11:07:49;11.30;99.90
22682;DHT22;11508;50.856;4.380;2024-02-04T11:10:16;11.30;99.90
22682;DHT22;11508;50.856;4.380;2024-02-04T11:12:44;11.30;99.90
22682;DHT22;11508;50.856;4.380;2024-02-04T11:15:13;11.30;99.90
22682;DHT22;11508;50.856;4.380;2024-02-04T11:31:21;11.40;99.90
22682;DHT22;11508;50.856;4.380;2024-02-04T11:33:50;11.50;99.90
22682;DHT22;11508;50.856;4.380;2024-02-04T11:36:49;11.60;99.90
22682;DHT22;11508;50.856;4.380;2024-02-04T11:39:18;11.50;99.90
22682;DHT22;11508;50.856;4.380;2024-02-04T11:41:48;11.50;99.90
22682;DHT22;11508;50.856;4.380;2024-02-04T12:18:14;11.40;99.90
22682;DHT22;11508;50.856;4.380;2024-02-04T12:27:10;11.20;99.90
22682;DHT22;11508;50.856;4.380;2024-02-04T12:29:36;11.20;99.90
22682;DHT22;11508;50.856;4.380;2024-02-04T12:32:02;11.30;99.90
22682;DHT22;11508;50.856;4.380;2024-02-04T14:23:30;10.90;99.90
22682;DHT22;11508;50.856;4.380;2024-02-04T14:33:02;10.90;99.90
22682;DHT22;11508;50.856;4.380;2024-02-04T14:41:58;10.80;99.90
22682;DHT22;11508;50.856;4.380;2024-02-04T14:47:58;10.90;99.90
22682;DHT22;11508;50.856;4.380;2024-02-04T15:14:36;11.10;99.90
22682;DHT22;11508;50.856;4.380;2024-02-04T15:20:35;11.00;99.90
22682;DHT22;11508;50.856;4.380;2024-02-04T15:47:07;11.20;99.90
22682;DHT22;11508;50.856;4.380;2024-02-04T16:03:24;11.20;99.90
22682;DHT22;11508;50.856;4.380;2024-02-04T16:08:35;11.20;99.90
22682;DHT22;11508;50.856;4.380;2024-02-04T16:11:15;11.30;99.90
22682;DHT22;11508;50.856;4.380;2024-02-04T16:13:42;11.40;99.90
22682;DHT22;11508;50.856;4.380;2024-02-04T16:16:08;11.20;99.90
22682;DHT22;11508;50.856;4.380;2024-02-04T16:18:41;11.20;99.90
22682;DHT22;11508;50.856;4.380;2024-02-04T16:21:08;11.20;99.90
22682;DHT22;11508;50.856;4.380;2024-02-04T16:23:33;11.20;99.90
22682;DHT22;11508;50.856;4.380;2024-02-04T16:25:59;11.30;99.90
22682;DHT22;11508;50.856;4.380;2024-02-04T16:28:26;11.20;99.90
22682;DHT22;11508;50.856;4.380;2024-02-04T16:31:28;11.20;99.90
22682;DHT22;11508;50.856;4.380;2024-02-04T16:37:16;11.30;99.90
22682;DHT22;11508;50.856;4.380;2024-02-04T17:01:15;11.30;99.90
22682;DHT22;11508;50.856;4.380;2024-02-04T17:06:32;11.20;99.90
22682;DHT22;11508;50.856;4.380;2024-02-04T17:08:58;11.20;99.90
22682;DHT22;11508;50.856;4.380;2024-02-04T17:11:27;11.20;99.90
22682;DHT22;11508;50.856;4.380;2024-02-04T17:13:56;11.20;99.90
22682;DHT22;11508;50.856;4.380;2024-02-04T17:16:48;11.20;99.90
22682;DHT22;11508;50.856;4.380;2024-02-04T17:22:53;11.40;99.90
22682;DHT22;11508;50.856;4.380;2024-02-04T17:29:00;11.20;99.90
22682;DHT22;11508;50.856;4.380;2024-02-04T17:31:27;11.20;99.90
22682;DHT22;11508;50.856;4.380;2024-02-04T17:33:53;11.20;99.90
22682;DHT22;11508;50.856;4.380;2024-02-04T17:36:24;11.20;99.90
22682;DHT22;11508;50.856;4.380;2024-02-04T17:39:10;11.20;99.90
22682;DHT22;11508;50.856;4.380;2024-02-04T17:41:37;11.10;99.90
22682;DHT22;11508;50.856;4.380;2024-02-04T17:44:04;11.10;99.90
22682;DHT22;11508;50.856;4.380;2024-02-04T17:46:30;11.10;99.90
22682;DHT22;11508;50.856;4.380;2024-02-04T17:48:56;11.10;99.90
22682;DHT22;11508;50.856;4.380;2024-02-04T17:51:21;11.10;99.90
22682;DHT22;11508;50.856;4.380;2024-02-04T17:53:47;11.10;99.90
22682;DHT22;11508;50.856;4.380;2024-02-04T17:56:16;11.10;99.90
22682;DHT22;11508;50.856;4.380;2024-02-04T17:58:43;11.20;99.90
22682;DHT22;11508;50.856;4.380;2024-02-04T18:01:10;11.20;99.90
22682;DHT22;11508;50.856;4.380;2024-02-04T18:03:44;11.20;99.90
22682;DHT22;11508;50.856;4.380;2024-02-04T18:06:09;11.20;99.90
22682;DHT22;11508;50.856;4.380;2024-02-04T18:08:35;11.10;99.90
22682;DHT22;11508;50.856;4.380;2024-02-04T18:11:01;11.10;99.90
22682;DHT22;11508;50.856;4.380;2024-02-04T18:13:27;11.10;99.90
22682;DHT22;11508;50.856;4.380;2024-02-04T18:15:52;11.10;99.90
22682;DHT22;11508;50.856;4.380;2024-02-04T18:18:19;11.10;99.90
22682;DHT22;11508;50.856;4.380;2024-02-04T18:20:45;11.10;99.90
22682;DHT22;11508;50.856;4.380;2024-02-04T18:23:11;11.10;99.90
22682;DHT22;11508;50.856;4.380;2024-02-04T18:25:36;11.10;99.90
22682;DHT22;11508;50.856;4.380;2024-02-04T18:28:03;11.00;99.90
22682;DHT22;11508;50.856;4.380;2024-02-04T18:30:30;11.10;99.90
22682;DHT22;11508;50.856;4.380;2024-02-04T18:32:57;11.00;99.90
22682;DHT22;11508;50.856;4.380;2024-02-04T18:35:23;11.00;99.90
22682;DHT22;11508;50.856;4.380;2024-02-04T18:37:49;11.00;99.90
22682;DHT22;11508;50.856;4.380;2024-02-04T18:40:15;11.00;99.90
22682;DHT22;11508;50.856;4.380;2024-02-04T18:42:41;11.00;99.90
22682;DHT22;11508;50.856;4.380;2024-02-04T18:45:07;11.00;99.90
22682;DHT22;11508;50.856;4.380;2024-02-04T18:47:33;11.10;99.90
22682;DHT22;11508;50.856;4.380;2024-02-04T18:49:59;11.10;99.90
22682;DHT22;11508;50.856;4.380;2024-02-04T18:52:27;11.10;99.90
22682;DHT22;11508;50.856;4.380;2024-02-04T18:54:52;11.10;99.90
22682;DHT22;11508;50.856;4.380;2024-02-04T18:57:19;11.10;99.90
22682;DHT22;11508;50.856;4.380;2024-02-04T18:59:45;11.10;99.90
22682;DHT22;11508;50.856;4.380;2024-02-04T19:02:11;11.10;99.90
22682;DHT22;11508;50.856;4.380;2024-02-04T19:04:36;11.10;99.90
22682;DHT22;11508;50.856;4.380;2024-02-04T19:07:02;11.10;99.90
22682;DHT22;11508;50.856;4.380;2024-02-04T19:09:28;11.00;99.90
22682;DHT22;11508;50.856;4.380;2024-02-04T19:11:54;11.00;99.90
22682;DHT22;11508;50.856;4.380;2024-02-04T19:14:19;10.90;99.90
22682;DHT22;11508;50.856;4.380;2024-02-04T19:16:47;10.90;99.90
22682;DHT22;11508;50.856;4.380;2024-02-04T19:19:13;10.90;99.90
22682;DHT22;11508;50.856;4.380;2024-02-04T19:21:46;10.90;99.90
22682;DHT22;11508;50.856;4.380;2024-02-04T19:24:13;11.00;99.90
22682;DHT22;11508;50.856;4.380;2024-02-04T19:26:41;10.90;99.90
22682;DHT22;11508;50.856;4.380;2024-02-04T19:29:07;10.80;99.90
22682;DHT22;11508;50.856;4.380;2024-02-04T19:31:32;10.80;99.90
22682;DHT22;11508;50.856;4.380;2024-02-04T19:33:58;10.70;99.90
22682;DHT22;11508;50.856;4.380;2024-02-04T19:36:24;10.70;99.90
22682;DHT22;11508;50.856;4.380;2024-02-04T19:38:50;10.60;99.90
22682;DHT22;11508;50.856;4.380;2024-02-04T19:41:16;10.60;99.90
22682;DHT22;11508;50.856;4.380;2024-02-04T19:43:42;10.70;99.90
22682;DHT22;11508;50.856;4.380;2024-02-04T19:46:08;10.70;99.90
22682;DHT22;11508;50.856;4.380;2024-02-04T19:48:34;10.70;99.90
22682;DHT22;11508;50.856;4.380;2024-02-04T19:50:59;10.50;99.90
22682;DHT22;11508;50.856;4.380;2024-02-04T19:53:25;10.60;99.90
22682;DHT22;11508;50.856;4.380;2024-02-04T19:55:51;10.60;99.90
22682;DHT22;11508;50.856;4.380;2024-02-04T19:58:17;10.60;99.90
22682;DHT22;11508;50.856;4.380;2024-02-04T20:00:42;10.60;99.90
22682;DHT22;11508;50.856;4.380;2024-02-04T20:03:08;10.60;99.90
22682;DHT22;11508;50.856;4.380;2024-02-04T20:05:34;10.70;99.90
22682;DHT22;11508;50.856;4.380;2024-02-04T20:08:01;10.60;99.90
22682;DHT22;11508;50.856;4.380;2024-02-04T20:10:27;10.70;99.90
22682;DHT22;11508;50.856;4.380;2024-02-04T20:12:53;10.70;99.90
22682;DHT22;11508;50.856;4.380;2024-02-04T20:15:20;10.70;99.90
22682;DHT22;11508;50.856;4.380;2024-02-04T20:17:53;10.70;99.90
22682;DHT22;11508;50.856;4.380;2024-02-04T20:20:19;10.80;99.90
22682;DHT22;11508;50.856;4.380;2024-02-04T20:22:46;10.90;99.90
22682;DHT22;11508;50.856;4.380;2024-02-04T20:25:12;10.80;99.90
22682;DHT22;11508;50.856;4.380;2024-02-04T20:27:38;10.70;99.90
22682;DHT22;11508;50.856;4.380;2024-02-04T20:30:04;10.70;99.90
22682;DHT22;11508;50.856;4.380;2024-02-04T20:32:31;10.70;99.90
22682;DHT22;11508;50.856;4.380;2024-02-04T20:34:57;10.60;99.90
22682;DHT22;11508;50.856;4.380;2024-02-04T20:37:22;10.60;99.90
22682;DHT22;11508;50.856;4.380;2024-02-04T20:39:52;10.60;99.90
22682;DHT22;11508;50.856;4.380;2024-02-04T20:42:17;10.70;99.90
22682;DHT22;11508;50.856;4.380;2024-02-04T20:44:43;10.70;99.90
22682;DHT22;11508;50.856;4.380;2024-02-04T20:47:09;10.70;99.90
22682;DHT22;11508;50.856;4.380;2024-02-04T20:49:35;10.80;99.90
22682;DHT22;11508;50.856;4.380;2024-02-04T20:52:00;10.80;99.90
22682;DHT22;11508;50.856;4.380;2024-02-04T20:54:28;10.80;99.90
22682;DHT22;11508;50.856;4.380;2024-02-04T20:56:56;10.70;99.90
22682;DHT22;11508;50.856;4.380;2024-02-04T20:59:22;10.70;99.90
22682;DHT22;11508;50.856;4.380;2024-02-04T21:01:47;10.70;99.90
22682;DHT22;11508;50.856;4.380;2024-02-04T21:04:14;10.70;99.90
22682;DHT22;11508;50.856;4.380;2024-02-04T21:06:41;10.70;99.90
22682;DHT22;11508;50.856;4.380;2024-02-04T21:09:07;10.80;99.90
22682;DHT22;11508;50.856;4.380;2024-02-04T21:11:35;10.80;99.90
22682;DHT22;11508;50.856;4.380;2024-02-04T21:14:02;10.80;99.90
22682;DHT22;11508;50.856;4.380;2024-02-04T21:16:28;10.80;99.90
22682;DHT22;11508;50.856;4.380;2024-02-04T21:18:54;10.80;99.90
22682;DHT22;11508;50.856;4.380;2024-02-04T21:21:19;10.80;99.90
22682;DHT22;11508;50.856;4.380;2024-02-04T21:23:45;10.80;99.90
22682;DHT22;11508;50.856;4.380;2024-02-04T21:26:11;10.90;99.90
22682;DHT22;11508;50.856;4.380;2024-02-04T21:28:37;10.80;99.90
22682;DHT22;11508;50.856;4.380;2024-02-04T21:31:09;10.80;99.90
22682;DHT22;11508;50.856;4.380;2024-02-04T21:33:36;10.80;99.90
22682;DHT22;11508;50.856;4.380;2024-02-04T21:36:07;10.80;99.90
22682;DHT22;11508;50.856;4.380;2024-02-04T21:38:34;10.80;99.90
22682;DHT22;11508;50.856;4.380;2024-02-04T21:41:00;10.80;99.90
22682;DHT22;11508;50.856;4.380;2024-02-04T21:43:26;10.90;99.90
22682;DHT22;11508;50.856;4.380;2024-02-04T21:45:52;11.00;99.90
22682;DHT22;11508;50.856;4.380;2024-02-04T21:48:19;10.90;99.90
22682;DHT22;11508;50.856;4.380;2024-02-04T21:50:49;10.90;99.90
22682;DHT22;11508;50.856;4.380;2024-02-04T21:53:19;11.00;99.90
22682;DHT22;11508;50.856;4.380;2024-02-04T21:55:44;10.90;99.90
22682;DHT22;11508;50.856;4.380;2024-02-04T21:58:11;10.90;99.90
22682;DHT22;11508;50.856;4.380;2024-02-04T22:00:37;10.90;99.90
22682;DHT22;11508;50.856;4.380;2024-02-04T22:03:03;10.90;99.90
22682;DHT22;11508;50.856;4.380;2024-02-04T22:05:30;10.90;99.90
22682;DHT22;11508;50.856;4.380;2024-02-04T22:07:59;11.00;99.90
22682;DHT22;11508;50.856;4.380;2024-02-04T22:10:25;11.00;99.90
22682;DHT22;11508;50.856;4.380;2024-02-04T22:12:51;11.00;99.90
22682;DHT22;11508;50.856;4.380;2024-02-04T22:15:17;11.00;99.90
22682;DHT22;11508;50.856;4.380;2024-02-04T22:17:42;11.00;99.90
22682;DHT22;11508;50.856;4.380;2024-02-04T22:20:08;11.00;99.90
22682;DHT22;11508;50.856;4.380;2024-02-04T22:22:34;11.00;99.90
22682;DHT22;11508;50.856;4.380;2024-02-04T22:25:00;11.00;99.90
22682;DHT22;11508;50.856;4.380;2024-02-04T22:27:28;11.00;99.90
22682;DHT22;11508;50.856;4.380;2024-02-04T22:29:53;10.90;99.90
22682;DHT22;11508;50.856;4.380;2024-02-04T22:32:19;10.90;99.90
22682;DHT22;11508;50.856;4.380;2024-02-04T22:34:49;11.00;99.90
22682;DHT22;11508;50.856;4.380;2024-02-04T22:37:15;11.00;99.90
22682;DHT22;11508;50.856;4.380;2024-02-04T22:39:41;11.00;99.90
22682;DHT22;11508;50.856;4.380;2024-02-04T22:42:06;11.00;99.90
22682;DHT22;11508;50.856;4.380;2024-02-04T22:44:32;10.90;99.90
22682;DHT22;11508;50.856;4.380;2024-02-04T22:46:58;11.00;99.90
22682;DHT22;11508;50.856;4.380;2024-02-04T22:49:25;11.00;99.90
22682;DHT22;11508;50.856;4.380;2024-02-04T22:51:51;10.90;99.90
22682;DHT22;11508;50.856;4.380;2024-02-04T22:54:17;10.90;99.90
22682;DHT22;11508;50.856;4.380;2024-02-04T22:56:42;10.90;99.90
22682;DHT22;11508;50.856;4.380;2024-02-04T22:59:08;10.90;99.90
22682;DHT22;11508;50.856;4.380;2024-02-04T23:01:34;10.80;99.90
22682;DHT22;11508;50.856;4.380;2024-02-04T23:04:03;10.80;99.90
22682;DHT22;11508;50.856;4.380;2024-02-04T23:06:29;10.80;99.90
22682;DHT22;11508;50.856;4.380;2024-02-04T23:08:55;10.80;99.90
22682;DHT22;11508;50.856;4.380;2024-02-04T23:11:20;10.90;99.90
22682;DHT22;11508;50.856;4.380;2024-02-04T23:13:46;11.00;99.90
22682;DHT22;11508;50.856;4.380;2024-02-04T23:16:16;11.00;99.90
22682;DHT22;11508;50.856;4.380;2024-02-04T23:18:43;10.90;99.90
22682;DHT22;11508;50.856;4.380;2024-02-04T23:21:09;10.90;99.90
22682;DHT22;11508;50.856;4.380;2024-02-04T23:23:34;10.90;99.90
22682;DHT22;11508;50.856;4.380;2024-02-04T23:26:00;10.80;99.90
22682;DHT22;11508;50.856;4.380;2024-02-04T23:28:26;10.80;99.90
22682;DHT22;11508;50.856;4.380;2024-02-04T23:30:52;10.80;99.90
22682;DHT22;11508;50.856;4.380;2024-02-04T23:33:18;10.80;99.90
22682;DHT22;11508;50.856;4.380;2024-02-04T23:35:44;10.80;99.90
22682;DHT22;11508;50.856;4.380;2024-02-04T23:38:09;10.80;99.90
22682;DHT22;11508;50.856;4.380;2024-02-04T23:40:35;10.90;99.90
22682;DHT22;11508;50.856;4.380;2024-02-04T23:43:02;11.00;99.90
22682;DHT22;11508;50.856;4.380;2024-02-04T23:45:29;10.90;99.90
22682;DHT22;11508;50.856;4.380;2024-02-04T23:47:55;10.90;99.90
22682;DHT22;11508;50.856;4.380;2024-02-04T23:50:20;10.90;99.90
22682;DHT22;11508;50.856;4.380;2024-02-04T23:52:47;10.90;99.90
22682;DHT22;11508;50.856;4.380;2024-02-04T23:55:14;10.90;99.90
22682;DHT22;11508;50.856;4.380;2024-02-04T23:57:42;10.90;99.90
